AirNav   Everest Fuels
 
 938 users online  

DC17 Children's Hospital Heliport
Washington, District of Columbia, USA

GOING TO WASHINGTON?


FAA INFORMATION EFFECTIVE 05 DECEMBER 2019

Location

FAA Identifier: DC17
Lat/Long: 38-55-39.5300N 077-00-52.1100W
38-55.658833N 077-00.868500W
38.9276472,-77.0144750
(estimated)
Elevation: 285 ft. / 86.9 m (surveyed)
Variation: 09W (1985)
Time zone: UTC -5 (UTC -4 during Daylight Saving Time)
Zip code: 20010

Heliport Operations

Heliport use: Private use, MEDICAL USE.
Activation date: 08/1987
Control tower: no
ARTCC: WASHINGTON CENTER
FSS: LEESBURG FLIGHT SERVICE STATION
NOTAMs facility: FDC (NOTAM-D service not available)
Attendance: CONTINUOUS
Wind indicator: yes
Segmented circle: no
Lights: SS-SR
Beacon: white-green-yellow (heliport)
Operates sunset to sunrise.

Heliport Communications

UNICOM: 123.05
WX ASOS at DCA (5 nm S): 132.65 (703-412-8140)
WX AWOS-3 at CGS (5 nm NE): 121.225 (301-864-5497)
WX AWOS-3 at FME (15 nm NE): 123.925
WX AWOS-3PT at GAI (16 nm NW): 128.275 (301-977-2971)

Nearby radio navigation aids

VOR radial/distance  VOR name  Freq  Var
DCAr023/4.2WASHINGTON VOR/DME111.0009W
ADWr326/10.0ANDREWS VORTAC113.1010W
OTTr327/18.3NOTTINGHAM VORTAC113.7010W
AMLr099/21.1ARMEL VOR/DME113.5008W
BALr239/22.0BALTIMORE VORTAC115.1011W
FDKr158/(33.6)FREDERICK VOR109.0008W
EMIr191/34.1WESTMINSTER VORTAC117.9008W
BRVr033/38.9BROOKE VORTAC114.5009W

 
NDB name  Hdg/Dist  Freq  Var  ID
GEORGETOWN101/5.132309WGTN --. - -.
OXONN015/9.733211WDCA -.. -.-. .-
DAVEE025/16.622309WDAA -.. .- .-
ELLICOTT218/24.237111WFND ..-. -. -..

Heliport Services

Runway Information

Helipad H1

Dimensions: 60 x 60 ft. / 18 x 18 m
Surface: concrete, in good condition
ROOFTOP.
Runway edge lights: PERI
Latitude: 38-55.658833N
Longitude: 077-00.868500W
Elevation: 285.0 ft.
Traffic pattern: leftleft

Heliport Ownership and Management from official FAA records

Ownership: Privately-owned
Owner: CHILDREN'S HOSPITAL NATIONAL
111 MICHIGAN AVE., NW
WASHINGTON, DC 20010
Phone 202-476-5433
Manager: MICHAEL COURTNEY
111 MICHIGAN AVE., NW
WASHINGTON, DC 20010
Phone 202-476-5433

Heliport Operational Statistics

Aircraft based on the field: 1
Helicopters: 1
    

Additional Remarks

A52-H1 +27 FT LGTD BLDG 28 FT S OF HELIPAD.
FOR CD CTC POTOMAC APCH AT 866-599-3874.

Instrument Procedures

There are no published instrument procedures at DC17.

Some nearby airports with instrument procedures:

KDCA - Ronald Reagan Washington National Airport (5 nm S)
KCGS - College Park Airport (5 nm NE)
KADW - Joint Base Andrews (10 nm SE)
KVKX - Potomac Airfield (11 nm S)
W00 - Freeway Airport (11 nm E)
W32 - Washington Executive Airport/Hyde Field (11 nm S)
KDAA - Davison Army Airfield (15 nm SW)
KFME - Tipton Airport (15 nm NE)
KGAI - Montgomery County Airpark (16 nm NW)
W50 - Davis Airport (20 nm N)
 
Loc | Ops | Rwys | IFR | FBO | Links
Com | Nav | Svcs | Stats | Notes
Area around DC17 (Children's Hospital Heliport)
 
Road maps at: MapQuest Bing Google
 
Aerial photo
No photo
 
Sectional chart

 
Airport distance calculator
Flying to Children's Hospital Heliport? Find the distance to fly.

From to DC17

Sunrise and sunset
Times for 12-Dec-2019
 Local
(UTC-5)
 Zulu
(UTC)
Morning civil twilight06:4911:49
Sunrise07:1812:18
Sunset16:4521:45
Evening civil twilight17:1522:15

Current date and time
Zulu (UTC)  12-Dec-2019 23:45:33
Local (UTC-5)  12-Dec-2019 18:45:33
 
METAR
KDCA 
5nm S 
122252Z 13007KT 10SM BKN250 02/M08 A3067 RMK AO2 SLP385 T00171083
KCGS 
5nm NE 
122336Z AUTO 00000KT 10SM CLR 00/M11 A3067 RMK AO1 T10021113
KADW 
10nm SE 
122256Z 12003KT 10SM CLR M01/M09 A3065 RMK AO2A SLP390 T10101087 $
KDAA 
15nm SW 
122256Z AUTO 00000KT 10SM CLR 00/M07 A3066 RMK AO2 SLP386 T00021067 $
KFME 
15nm NE 
122333Z AUTO 00000KT 10SM CLR M02/M07 A3069 RMK AO1
KGAI 
16nm NW 
122256Z AUTO 12005KT 10SM CLR 00/M08 A3064 RMK AO2 SLP395 T00001078 FZRANO
TAF
KDCA 
5nm S 
122053Z 1221/1324 VRB03KT P6SM SCT250 FM130400 VRB03KT P6SM SCT060 FM130600 VRB03KT P6SM BKN020 FM131500 VRB03KT 6SM -RA OVC015 FM131800 VRB03KT 6SM -RA OVC008
KADW 
10nm SE 
121700Z 1217/1323 12006KT 9999 SKC QNH3060INS BECMG 1302/1303 VRB06KT 9999 BKN030 QNH3057INS BECMG 1314/1315 35005KT 9999 BKN015 OVC030 QNH3034INS BECMG 1318/1319 35006KT 9000 -SHRA BKN008 OVC015 QNH3013INS BECMG 1321/1322 03006KT 8000 -SHRA BKN005 OVC015 QNH3010INS TX04/1317Z TNM02/1303Z
KDAA 
15nm SW 
121800Z 1218/1324 VRB06KT 9999 SKC QNH3070INS BECMG 1301/1302 VRB06KT 9999 OVC020 QNH3038INS BECMG 1313/1314 35006KT 9999 OVC015 QNH3029INS BECMG 1316/1317 33006KT 9000 -RA BR OVC007 QNH3006INS BECMG 1323/1324 36006KT 8000 -RA BR OVC005 QNH3005INS TX03/1218Z TN00/1303Z
NOTAMs
Click for the latest NOTAMs
NOTAMs are issued by the DoD/FAA and will open in a separate window not controlled by AirNav.

 

 
 

Would you like to see your business listed on this page?

 If your business provides an interesting product or service to pilots, flight crews, aircraft, or users of the Children's Hospital Heliport, you should consider listing it here.  To start the listing process, click on the button below
 
Add a business
 

Other Pages about Children's Hospital Heliport

Update a link
 
Copyright © AirNav, LLC. All rights reserved. Privacy Policy  Contact